Here is the Quick Look data you requested

The Data originates at the National Weather Service, and is made available here by the UAlbany Department of Atmospheric and Environmental Sciences

Surface Observations

KAVC 151955Z AUTO 21005KT 10SM CLR 36/21 A3000 RMK AO2 T03550213=
KAVC 152015Z AUTO 28005KT 10SM CLR 36/21 A2999 RMK AO2 T03590210=
KAVC 152035Z AUTO 25005KT 10SM CLR 36/20 A2999 RMK AO2 T03580201=
KAVC 152055Z AUTO 23006KT 10SM CLR 36/19 A2998 RMK AO2 T03580194=
KAVC 152115Z AUTO 24003KT 10SM CLR 36/20 A2998 RMK AO2 T03560195=
KAVC 152135Z AUTO 19004KT 10SM CLR 36/21 A2997 RMK AO2 T03550209=
KAVC 152155Z AUTO 19007KT 10SM CLR 35/22 A2996 RMK AO2 T03500224=
KAVC 152215Z AUTO 19006KT 10SM CLR 35/23 A2996 RMK AO2 T03450227=
KAVC 152235Z AUTO 20004KT 10SM CLR 34/24 A2996 RMK AO2 T03410235=
KAVC 152255Z AUTO 17006KT 10SM CLR 34/23 A2996 RMK AO2 T03360234=
KAVC 152315Z AUTO 17005KT 10SM CLR 33/24 A2997 RMK AO2 T03290242=
KAVC 152335Z AUTO 17007KT 10SM CLR 32/25 A2997 RMK AO2 T03210249=
KAVC 152355Z AUTO 17005KT 10SM CLR 32/25 A2998 RMK AO2 T03150251 10360 20315=
KAVC 160015Z AUTO 17006KT 10SM CLR 31/25 A2998 RMK AO2 T03070248=
KAVC 160035Z AUTO 18006KT 10SM CLR 31/24 A2998 RMK AO2 T03050239=
KAVC 160055Z AUTO 18005KT 10SM CLR 30/23 A2998 RMK AO2 T02960234=
KAVC 160115Z AUTO 20005KT 10SM CLR 29/23 A2998 RMK AO2 T02880234=
KAVC 160135Z AUTO 20005KT 10SM CLR 28/24 A2999 RMK AO2 T02810235=
KAVC 160155Z AUTO 21006KT 10SM CLR 28/23 A2999 RMK AO2 T02800233=
KAVC 160215Z AUTO 20006KT 10SM CLR 28/23 A2999 RMK AO2 T02830230=
KAVC 160235Z AUTO 20005KT 10SM CLR 28/23 A2999 RMK AO2 T02760229=
KAVC 160255Z AUTO 20005KT 10SM CLR 27/23 A2999 RMK AO2 T02690227=
KAVC 160315Z AUTO 20005KT 10SM CLR 27/23 A2999 RMK AO2 T02690226=
KAVC 160335Z AUTO 20005KT 10SM CLR 27/23 A2999 RMK AO2 T02650225=
KAVC 160355Z AUTO 19006KT 10SM CLR 26/22 A2999 RMK AO2 T02640222=
KAVC 160415Z AUTO 21006KT 10SM CLR 27/22 A2999 RMK AO2 T02650221=
KAVC 160435Z AUTO 21006KT 10SM CLR 26/22 A2999 RMK AO2 T02600220=
KAVC 160455Z AUTO 21006KT 10SM CLR 26/22 A2998 RMK AO2 T02620218 403600233=
KAVC 160515Z AUTO 20005KT 10SM CLR 26/22 A2998 RMK AO2 T02570217=
KAVC 160535Z AUTO 18005KT 10SM CLR 25/22 A2997 RMK AO2 T02530218=
KAVC 160555Z AUTO 20007KT 10SM CLR 25/22 A2998 RMK AO2 T02500220 10314 20250=
KAVC 160615Z AUTO 20007KT 10SM CLR 25/22 A2997 RMK AO2 T02500221=
KAVC 160635Z AUTO 21004KT 10SM CLR 25/22 A2997 RMK AO2 T02470222=
KAVC 160655Z AUTO 18005KT 10SM CLR 24/23 A2997 RMK AO2 T02410227=
KAVC 160715Z AUTO 21005KT 10SM CLR 24/23 A2997 RMK AO2 T02420231=
KAVC 160735Z AUTO 20006KT 10SM CLR 24/23 A2998 RMK AO2 T02420231=
KAVC 160755Z AUTO 21004KT 10SM CLR 24/23 A2997 RMK AO2 T02400233=
KAVC 160815Z AUTO 22003KT 10SM CLR 24/23 A2998 RMK AO2 T02410234=
KAVC 160835Z AUTO 20004KT 10SM CLR 24/23 A2999 RMK AO2 T02350233=
KAVC 160855Z AUTO 18003KT 10SM CLR 24/23 A2999 RMK AO2 T02370234=
KAVC 160915Z AUTO 21004KT 10SM CLR 24/24 A3000 RMK AO2 T02370235=
KAVC 160935Z AUTO 20004KT 10SM CLR 24/24 A2999 RMK AO2 T02410236=
KAVC 160955Z AUTO 20004KT 10SM CLR 24/24 A2999 RMK AO2 T02400237=
KAVC 161015Z AUTO 19004KT 10SM CLR 24/24 A2998 RMK AO2 T02370235=
KAVC 161035Z AUTO 20004KT 10SM CLR 24/24 A2998 RMK AO2 T02380235=
KAVC 161055Z AUTO 20005KT 10SM CLR 25/24 A2998 RMK AO2 T02450240=
KAVC 161115Z AUTO 19005KT 10SM CLR 25/24 A2999 RMK AO2 T02500240=
KAVC 161135Z AUTO 20004KT 10SM CLR 25/24 A3000 RMK AO2 T02500241=
KAVC 161155Z AUTO 19004KT 10SM CLR 25/25 A3000 RMK AO2 T02530245 10253 20235=
KAVC 161215Z AUTO 20006KT 10SM CLR 27/24 A3000 RMK AO2 T02660241=
KAVC 161235Z AUTO 20005KT 10SM CLR 27/25 A3001 RMK AO2 T02680248=
KAVC 161255Z AUTO 22005KT 10SM CLR 28/25 A3001 RMK AO2 T02810246=
KAVC 161315Z AUTO 22007KT 10SM CLR 29/24 A3001 RMK AO2 T02890242=
KAVC 161335Z AUTO 22004KT 10SM CLR 30/24 A3000 RMK AO2 T02960244=
KAVC 161355Z AUTO 23005KT 10SM CLR 31/25 A3000 RMK AO2 T03050246=
KAVC 161415Z AUTO 22007KT 10SM CLR 30/24 A3001 RMK AO2 T03040240=
KAVC 161435Z AUTO 22006KT 10SM CLR 31/24 A3001 RMK AO2 T03080240=
KAVC 161455Z AUTO 21007KT 10SM CLR 31/24 A3001 RMK AO2 T03140244=
KAVC 161515Z AUTO 22007KT 10SM CLR 32/25 A3001 RMK AO2 T03170248=
KAVC 161535Z AUTO 22007KT 10SM CLR 32/25 A3001 RMK AO2 T03240246=
KAVC 161555Z AUTO 21004KT 10SM CLR 32/25 A3001 RMK AO2 T03200249=
KAVC 161615Z AUTO 21007KT 10SM CLR 33/25 A3000 RMK AO2 T03270249=
KAVC 161635Z AUTO 23005KT 10SM CLR 34/25 A3000 RMK AO2 T03350252=
KAVC 161655Z AUTO 22005KT 10SM CLR 34/26 A2999 RMK AO2 T03360255=
KAVC 161715Z AUTO 22009KT 170V230 10SM CLR 34/26 A2999 RMK AO2 T03390257=
KAVC 161735Z AUTO 23007KT 10SM CLR 34/25 A2999 RMK AO2 T03410248=
KAVC 161755Z AUTO 21008KT 10SM CLR 34/26 A2998 RMK AO2 T03410257 10343 20254=
KAVC 161815Z AUTO 21008KT 10SM CLR 34/25 A2998 RMK AO2 T03400254=
KAVC 161835Z AUTO 17008KT 10SM SCT035 34/26 A2997 RMK AO2 T03410263=
KAVC 161855Z AUTO 18008KT 10SM SCT037 SCT048 34/26 A2996 RMK AO2 T03400259=
KAVC 161915Z AUTO 20008G14KT 10SM SCT037 34/26 A2996 RMK AO2 T03410257=
KAVC 161935Z AUTO 18010KT 10SM SCT037 34/26 A2996 RMK AO2 T03400256=
KAVC 161955Z AUTO 18010G15KT 10SM CLR 34/25 A2995 RMK AO2 T03420248=
KAVC 162015Z AUTO 18010G15KT 10SM SCT043 34/25 A2994 RMK AO2 T03410249=

Decoded Surface Observations


The weather observed at SOUTH HILL/MECKL, VA (KAVC) at 03:55 PM EDT was:
  The skies were clear.
  Temperature: 97F ( 36C)  Dewpoint:  70F ( 21C)  Relative Humidity:  42%
  Winds from the SW (210 degs) at  6 mph.
  Altimeter:30.00 inches of mercury.
  The prevailing visibility was 10 miles.

The weather observed at SOUTH HILL/MECKL, VA (KAVC) at 04:15 PM EDT was:
  The skies were clear.
  Temperature: 97F ( 36C)  Dewpoint:  70F ( 21C)  Relative Humidity:  42%
  Winds from the W  (280 degs) at  6 mph.
  Altimeter:29.99 inches of mercury.
  The prevailing visibility was 10 miles.

The weather observed at SOUTH HILL/MECKL, VA (KAVC) at 04:35 PM EDT was:
  The skies were clear.
  Temperature: 97F ( 36C)  Dewpoint:  68F ( 20C)  Relative Humidity:  39%
  Winds from the WSW(250 degs) at  6 mph.
  Altimeter:29.99 inches of mercury.
  The prevailing visibility was 10 miles.

The weather observed at SOUTH HILL/MECKL, VA (KAVC) at 04:55 PM EDT was:
  The skies were clear.
  Temperature: 97F ( 36C)  Dewpoint:  66F ( 19C)  Relative Humidity:  37%
  Winds from the SW (230 degs) at  7 mph.
  Altimeter:29.98 inches of mercury.
  The prevailing visibility was 10 miles.

The weather observed at SOUTH HILL/MECKL, VA (KAVC) at 05:15 PM EDT was:
  The skies were clear.
  Temperature: 97F ( 36C)  Dewpoint:  68F ( 20C)  Relative Humidity:  39%
  Winds from the SW (240 degs) at  3 mph.
  Altimeter:29.98 inches of mercury.
  The prevailing visibility was 10 miles.

The weather observed at SOUTH HILL/MECKL, VA (KAVC) at 05:35 PM EDT was:
  The skies were clear.
  Temperature: 97F ( 36C)  Dewpoint:  70F ( 21C)  Relative Humidity:  42%
  Winds from the S  (190 degs) at  5 mph.
  Altimeter:29.97 inches of mercury.
  The prevailing visibility was 10 miles.

The weather observed at SOUTH HILL/MECKL, VA (KAVC) at 05:55 PM EDT was:
  The skies were clear.
  Temperature: 95F ( 35C)  Dewpoint:  72F ( 22C)  Relative Humidity:  47%
  Winds from the S  (190 degs) at  8 mph.
  Altimeter:29.96 inches of mercury.
  The prevailing visibility was 10 miles.

The weather observed at SOUTH HILL/MECKL, VA (KAVC) at 06:15 PM EDT was:
  The skies were clear.
  Temperature: 95F ( 35C)  Dewpoint:  73F ( 23C)  Relative Humidity:  50%
  Winds from the S  (190 degs) at  7 mph.
  Altimeter:29.96 inches of mercury.
  The prevailing visibility was 10 miles.

The weather observed at SOUTH HILL/MECKL, VA (KAVC) at 06:35 PM EDT was:
  The skies were clear.
  Temperature: 93F ( 34C)  Dewpoint:  75F ( 24C)  Relative Humidity:  56%
  Winds from the SSW(200 degs) at  5 mph.
  Altimeter:29.96 inches of mercury.
  The prevailing visibility was 10 miles.

The weather observed at SOUTH HILL/MECKL, VA (KAVC) at 06:55 PM EDT was:
  The skies were clear.
  Temperature: 93F ( 34C)  Dewpoint:  73F ( 23C)  Relative Humidity:  53%
  Winds from the S  (170 degs) at  7 mph.
  Altimeter:29.96 inches of mercury.
  The prevailing visibility was 10 miles.

The weather observed at SOUTH HILL/MECKL, VA (KAVC) at 07:15 PM EDT was:
  The skies were clear.
  Temperature: 91F ( 33C)  Dewpoint:  75F ( 24C)  Relative Humidity:  59%
  Winds from the S  (170 degs) at  6 mph.
  Altimeter:29.97 inches of mercury.
  The prevailing visibility was 10 miles.

The weather observed at SOUTH HILL/MECKL, VA (KAVC) at 07:35 PM EDT was:
  The skies were clear.
  Temperature: 90F ( 32C)  Dewpoint:  77F ( 25C)  Relative Humidity:  67%
  Winds from the S  (170 degs) at  8 mph.
  Altimeter:29.97 inches of mercury.
  The prevailing visibility was 10 miles.

The weather observed at SOUTH HILL/MECKL, VA (KAVC) at 07:55 PM EDT was:
  The skies were clear.
  Temperature: 89F ( 32C)  Dewpoint:  77F ( 25C)  Relative Humidity:  69%
  Winds from the S  (170 degs) at  6 mph.
  Altimeter:29.98 inches of mercury.
  The prevailing visibility was 10 miles.
  The maximum temperature in the past 6 hours was  97F.

The weather observed at SOUTH HILL/MECKL, VA (KAVC) at 08:15 PM EDT was:
  The skies were clear.
  Temperature: 88F ( 31C)  Dewpoint:  77F ( 25C)  Relative Humidity:  70%
  Winds from the S  (170 degs) at  7 mph.
  Altimeter:29.98 inches of mercury.
  The prevailing visibility was 10 miles.

The weather observed at SOUTH HILL/MECKL, VA (KAVC) at 08:35 PM EDT was:
  The skies were clear.
  Temperature: 88F ( 31C)  Dewpoint:  75F ( 24C)  Relative Humidity:  66%
  Winds from the S  (180 degs) at  7 mph.
  Altimeter:29.98 inches of mercury.
  The prevailing visibility was 10 miles.

The weather observed at SOUTH HILL/MECKL, VA (KAVC) at 08:55 PM EDT was:
  The skies were clear.
  Temperature: 86F ( 30C)  Dewpoint:  73F ( 23C)  Relative Humidity:  66%
  Winds from the S  (180 degs) at  6 mph.
  Altimeter:29.98 inches of mercury.
  The prevailing visibility was 10 miles.

The weather observed at SOUTH HILL/MECKL, VA (KAVC) at 09:15 PM EDT was:
  The skies were clear.
  Temperature: 84F ( 29C)  Dewpoint:  73F ( 23C)  Relative Humidity:  70%
  Winds from the SSW(200 degs) at  6 mph.
  Altimeter:29.98 inches of mercury.
  The prevailing visibility was 10 miles.

The weather observed at SOUTH HILL/MECKL, VA (KAVC) at 09:35 PM EDT was:
  The skies were clear.
  Temperature: 82F ( 28C)  Dewpoint:  75F ( 24C)  Relative Humidity:  79%
  Winds from the SSW(200 degs) at  6 mph.
  Altimeter:29.99 inches of mercury.
  The prevailing visibility was 10 miles.

The weather observed at SOUTH HILL/MECKL, VA (KAVC) at 09:55 PM EDT was:
  The skies were clear.
  Temperature: 82F ( 28C)  Dewpoint:  73F ( 23C)  Relative Humidity:  74%
  Winds from the SW (210 degs) at  7 mph.
  Altimeter:29.99 inches of mercury.
  The prevailing visibility was 10 miles.

The weather observed at SOUTH HILL/MECKL, VA (KAVC) at 10:15 PM EDT was:
  The skies were clear.
  Temperature: 82F ( 28C)  Dewpoint:  73F ( 23C)  Relative Humidity:  74%
  Winds from the SSW(200 degs) at  7 mph.
  Altimeter:29.99 inches of mercury.
  The prevailing visibility was 10 miles.

The weather observed at SOUTH HILL/MECKL, VA (KAVC) at 10:35 PM EDT was:
  The skies were clear.
  Temperature: 82F ( 28C)  Dewpoint:  73F ( 23C)  Relative Humidity:  74%
  Winds from the SSW(200 degs) at  6 mph.
  Altimeter:29.99 inches of mercury.
  The prevailing visibility was 10 miles.

The weather observed at SOUTH HILL/MECKL, VA (KAVC) at 10:55 PM EDT was:
  The skies were clear.
  Temperature: 81F ( 27C)  Dewpoint:  73F ( 23C)  Relative Humidity:  79%
  Winds from the SSW(200 degs) at  6 mph.
  Altimeter:29.99 inches of mercury.
  The prevailing visibility was 10 miles.

The weather observed at SOUTH HILL/MECKL, VA (KAVC) at 11:15 PM EDT was:
  The skies were clear.
  Temperature: 81F ( 27C)  Dewpoint:  73F ( 23C)  Relative Humidity:  79%
  Winds from the SSW(200 degs) at  6 mph.
  Altimeter:29.99 inches of mercury.
  The prevailing visibility was 10 miles.

The weather observed at SOUTH HILL/MECKL, VA (KAVC) at 11:35 PM EDT was:
  The skies were clear.
  Temperature: 81F ( 27C)  Dewpoint:  73F ( 23C)  Relative Humidity:  79%
  Winds from the SSW(200 degs) at  6 mph.
  Altimeter:29.99 inches of mercury.
  The prevailing visibility was 10 miles.

The weather observed at SOUTH HILL/MECKL, VA (KAVC) at 11:55 PM EDT was:
  The skies were clear.
  Temperature: 79F ( 26C)  Dewpoint:  72F ( 22C)  Relative Humidity:  79%
  Winds from the S  (190 degs) at  7 mph.
  Altimeter:29.99 inches of mercury.
  The prevailing visibility was 10 miles.

The weather observed at SOUTH HILL/MECKL, VA (KAVC) at 12:15 AM EDT was:
  The skies were clear.
  Temperature: 81F ( 27C)  Dewpoint:  72F ( 22C)  Relative Humidity:  74%
  Winds from the SW (210 degs) at  7 mph.
  Altimeter:29.99 inches of mercury.
  The prevailing visibility was 10 miles.

The weather observed at SOUTH HILL/MECKL, VA (KAVC) at 12:35 AM EDT was:
  The skies were clear.
  Temperature: 79F ( 26C)  Dewpoint:  72F ( 22C)  Relative Humidity:  79%
  Winds from the SW (210 degs) at  7 mph.
  Altimeter:29.99 inches of mercury.
  The prevailing visibility was 10 miles.

The weather observed at SOUTH HILL/MECKL, VA (KAVC) at 12:55 AM EDT was:
  The skies were clear.
  Temperature: 79F ( 26C)  Dewpoint:  71F ( 22C)  Relative Humidity:  77%
  Winds from the SW (210 degs) at  7 mph.
  Altimeter:29.98 inches of mercury.
  The prevailing visibility was 10 miles.

The weather observed at SOUTH HILL/MECKL, VA (KAVC) at 01:15 AM EDT was:
  The skies were clear.
  Temperature: 79F ( 26C)  Dewpoint:  72F ( 22C)  Relative Humidity:  79%
  Winds from the SSW(200 degs) at  6 mph.
  Altimeter:29.98 inches of mercury.
  The prevailing visibility was 10 miles.

The weather observed at SOUTH HILL/MECKL, VA (KAVC) at 01:35 AM EDT was:
  The skies were clear.
  Temperature: 77F ( 25C)  Dewpoint:  72F ( 22C)  Relative Humidity:  83%
  Winds from the S  (180 degs) at  6 mph.
  Altimeter:29.97 inches of mercury.
  The prevailing visibility was 10 miles.

The weather observed at SOUTH HILL/MECKL, VA (KAVC) at 01:55 AM EDT was:
  The skies were clear.
  Temperature: 77F ( 25C)  Dewpoint:  72F ( 22C)  Relative Humidity:  83%
  Winds from the SSW(200 degs) at  8 mph.
  Altimeter:29.98 inches of mercury.
  The prevailing visibility was 10 miles.
  The maximum temperature in the past 6 hours was  89F.

The weather observed at SOUTH HILL/MECKL, VA (KAVC) at 02:15 AM EDT was:
  The skies were clear.
  Temperature: 77F ( 25C)  Dewpoint:  72F ( 22C)  Relative Humidity:  83%
  Winds from the SSW(200 degs) at  8 mph.
  Altimeter:29.97 inches of mercury.
  The prevailing visibility was 10 miles.

The weather observed at SOUTH HILL/MECKL, VA (KAVC) at 02:35 AM EDT was:
  The skies were clear.
  Temperature: 77F ( 25C)  Dewpoint:  72F ( 22C)  Relative Humidity:  83%
  Winds from the SW (210 degs) at  5 mph.
  Altimeter:29.97 inches of mercury.
  The prevailing visibility was 10 miles.

The weather observed at SOUTH HILL/MECKL, VA (KAVC) at 02:55 AM EDT was:
  The skies were clear.
  Temperature: 75F ( 24C)  Dewpoint:  73F ( 23C)  Relative Humidity:  94%
  Winds from the S  (180 degs) at  6 mph.
  Altimeter:29.97 inches of mercury.
  The prevailing visibility was 10 miles.

The weather observed at SOUTH HILL/MECKL, VA (KAVC) at 03:15 AM EDT was:
  The skies were clear.
  Temperature: 75F ( 24C)  Dewpoint:  73F ( 23C)  Relative Humidity:  94%
  Winds from the SW (210 degs) at  6 mph.
  Altimeter:29.97 inches of mercury.
  The prevailing visibility was 10 miles.

The weather observed at SOUTH HILL/MECKL, VA (KAVC) at 03:35 AM EDT was:
  The skies were clear.
  Temperature: 75F ( 24C)  Dewpoint:  73F ( 23C)  Relative Humidity:  94%
  Winds from the SSW(200 degs) at  7 mph.
  Altimeter:29.98 inches of mercury.
  The prevailing visibility was 10 miles.

The weather observed at SOUTH HILL/MECKL, VA (KAVC) at 03:55 AM EDT was:
  The skies were clear.
  Temperature: 75F ( 24C)  Dewpoint:  73F ( 23C)  Relative Humidity:  94%
  Winds from the SW (210 degs) at  5 mph.
  Altimeter:29.97 inches of mercury.
  The prevailing visibility was 10 miles.

The weather observed at SOUTH HILL/MECKL, VA (KAVC) at 04:15 AM EDT was:
  The skies were clear.
  Temperature: 75F ( 24C)  Dewpoint:  73F ( 23C)  Relative Humidity:  94%
  Winds from the SW (220 degs) at  3 mph.
  Altimeter:29.98 inches of mercury.
  The prevailing visibility was 10 miles.

The weather observed at SOUTH HILL/MECKL, VA (KAVC) at 04:35 AM EDT was:
  The skies were clear.
  Temperature: 75F ( 24C)  Dewpoint:  73F ( 23C)  Relative Humidity:  94%
  Winds from the SSW(200 degs) at  5 mph.
  Altimeter:29.99 inches of mercury.
  The prevailing visibility was 10 miles.

The weather observed at SOUTH HILL/MECKL, VA (KAVC) at 04:55 AM EDT was:
  The skies were clear.
  Temperature: 75F ( 24C)  Dewpoint:  73F ( 23C)  Relative Humidity:  94%
  Winds from the S  (180 degs) at  3 mph.
  Altimeter:29.99 inches of mercury.
  The prevailing visibility was 10 miles.

The weather observed at SOUTH HILL/MECKL, VA (KAVC) at 05:15 AM EDT was:
  The skies were clear.
  Temperature: 75F ( 24C)  Dewpoint:  75F ( 24C)  Relative Humidity: 100%
  Winds from the SW (210 degs) at  5 mph.
  Altimeter:30.00 inches of mercury.
  The prevailing visibility was 10 miles.

The weather observed at SOUTH HILL/MECKL, VA (KAVC) at 05:35 AM EDT was:
  The skies were clear.
  Temperature: 75F ( 24C)  Dewpoint:  75F ( 24C)  Relative Humidity: 100%
  Winds from the SSW(200 degs) at  5 mph.
  Altimeter:29.99 inches of mercury.
  The prevailing visibility was 10 miles.

The weather observed at SOUTH HILL/MECKL, VA (KAVC) at 05:55 AM EDT was:
  The skies were clear.
  Temperature: 75F ( 24C)  Dewpoint:  75F ( 24C)  Relative Humidity: 100%
  Winds from the SSW(200 degs) at  5 mph.
  Altimeter:29.99 inches of mercury.
  The prevailing visibility was 10 miles.

The weather observed at SOUTH HILL/MECKL, VA (KAVC) at 06:15 AM EDT was:
  The skies were clear.
  Temperature: 75F ( 24C)  Dewpoint:  75F ( 24C)  Relative Humidity: 100%
  Winds from the S  (190 degs) at  5 mph.
  Altimeter:29.98 inches of mercury.
  The prevailing visibility was 10 miles.

The weather observed at SOUTH HILL/MECKL, VA (KAVC) at 06:35 AM EDT was:
  The skies were clear.
  Temperature: 75F ( 24C)  Dewpoint:  75F ( 24C)  Relative Humidity: 100%
  Winds from the SSW(200 degs) at  5 mph.
  Altimeter:29.98 inches of mercury.
  The prevailing visibility was 10 miles.

The weather observed at SOUTH HILL/MECKL, VA (KAVC) at 06:55 AM EDT was:
  The skies were clear.
  Temperature: 77F ( 25C)  Dewpoint:  75F ( 24C)  Relative Humidity:  94%
  Winds from the SSW(200 degs) at  6 mph.
  Altimeter:29.98 inches of mercury.
  The prevailing visibility was 10 miles.

The weather observed at SOUTH HILL/MECKL, VA (KAVC) at 07:15 AM EDT was:
  The skies were clear.
  Temperature: 77F ( 25C)  Dewpoint:  75F ( 24C)  Relative Humidity:  94%
  Winds from the S  (190 degs) at  6 mph.
  Altimeter:29.99 inches of mercury.
  The prevailing visibility was 10 miles.

The weather observed at SOUTH HILL/MECKL, VA (KAVC) at 07:35 AM EDT was:
  The skies were clear.
  Temperature: 77F ( 25C)  Dewpoint:  75F ( 24C)  Relative Humidity:  94%
  Winds from the SSW(200 degs) at  5 mph.
  Altimeter:30.00 inches of mercury.
  The prevailing visibility was 10 miles.

The weather observed at SOUTH HILL/MECKL, VA (KAVC) at 07:55 AM EDT was:
  The skies were clear.
  Temperature: 78F ( 25C)  Dewpoint:  76F ( 25C)  Relative Humidity:  95%
  Winds from the S  (190 degs) at  5 mph.
  Altimeter:30.00 inches of mercury.
  The prevailing visibility was 10 miles.
  The maximum temperature in the past 6 hours was  78F.

The weather observed at SOUTH HILL/MECKL, VA (KAVC) at 08:15 AM EDT was:
  The skies were clear.
  Temperature: 81F ( 27C)  Dewpoint:  75F ( 24C)  Relative Humidity:  84%
  Winds from the SSW(200 degs) at  7 mph.
  Altimeter:30.00 inches of mercury.
  The prevailing visibility was 10 miles.

The weather observed at SOUTH HILL/MECKL, VA (KAVC) at 08:35 AM EDT was:
  The skies were clear.
  Temperature: 81F ( 27C)  Dewpoint:  77F ( 25C)  Relative Humidity:  89%
  Winds from the SSW(200 degs) at  6 mph.
  Altimeter:30.01 inches of mercury.
  The prevailing visibility was 10 miles.

The weather observed at SOUTH HILL/MECKL, VA (KAVC) at 08:55 AM EDT was:
  The skies were clear.
  Temperature: 82F ( 28C)  Dewpoint:  77F ( 25C)  Relative Humidity:  84%
  Winds from the SW (220 degs) at  6 mph.
  Altimeter:30.01 inches of mercury.
  The prevailing visibility was 10 miles.

The weather observed at SOUTH HILL/MECKL, VA (KAVC) at 09:15 AM EDT was:
  The skies were clear.
  Temperature: 84F ( 29C)  Dewpoint:  75F ( 24C)  Relative Humidity:  74%
  Winds from the SW (220 degs) at  8 mph.
  Altimeter:30.01 inches of mercury.
  The prevailing visibility was 10 miles.

The weather observed at SOUTH HILL/MECKL, VA (KAVC) at 09:35 AM EDT was:
  The skies were clear.
  Temperature: 86F ( 30C)  Dewpoint:  75F ( 24C)  Relative Humidity:  70%
  Winds from the SW (220 degs) at  5 mph.
  Altimeter:30.00 inches of mercury.
  The prevailing visibility was 10 miles.

The weather observed at SOUTH HILL/MECKL, VA (KAVC) at 09:55 AM EDT was:
  The skies were clear.
  Temperature: 88F ( 31C)  Dewpoint:  77F ( 25C)  Relative Humidity:  70%
  Winds from the SW (230 degs) at  6 mph.
  Altimeter:30.00 inches of mercury.
  The prevailing visibility was 10 miles.

The weather observed at SOUTH HILL/MECKL, VA (KAVC) at 10:15 AM EDT was:
  The skies were clear.
  Temperature: 86F ( 30C)  Dewpoint:  75F ( 24C)  Relative Humidity:  70%
  Winds from the SW (220 degs) at  8 mph.
  Altimeter:30.01 inches of mercury.
  The prevailing visibility was 10 miles.

The weather observed at SOUTH HILL/MECKL, VA (KAVC) at 10:35 AM EDT was:
  The skies were clear.
  Temperature: 88F ( 31C)  Dewpoint:  75F ( 24C)  Relative Humidity:  66%
  Winds from the SW (220 degs) at  7 mph.
  Altimeter:30.01 inches of mercury.
  The prevailing visibility was 10 miles.

The weather observed at SOUTH HILL/MECKL, VA (KAVC) at 10:55 AM EDT was:
  The skies were clear.
  Temperature: 88F ( 31C)  Dewpoint:  75F ( 24C)  Relative Humidity:  66%
  Winds from the SW (210 degs) at  8 mph.
  Altimeter:30.01 inches of mercury.
  The prevailing visibility was 10 miles.

The weather observed at SOUTH HILL/MECKL, VA (KAVC) at 11:15 AM EDT was:
  The skies were clear.
  Temperature: 90F ( 32C)  Dewpoint:  77F ( 25C)  Relative Humidity:  67%
  Winds from the SW (220 degs) at  8 mph.
  Altimeter:30.01 inches of mercury.
  The prevailing visibility was 10 miles.

The weather observed at SOUTH HILL/MECKL, VA (KAVC) at 11:35 AM EDT was:
  The skies were clear.
  Temperature: 90F ( 32C)  Dewpoint:  77F ( 25C)  Relative Humidity:  67%
  Winds from the SW (220 degs) at  8 mph.
  Altimeter:30.01 inches of mercury.
  The prevailing visibility was 10 miles.

The weather observed at SOUTH HILL/MECKL, VA (KAVC) at 11:55 AM EDT was:
  The skies were clear.
  Temperature: 90F ( 32C)  Dewpoint:  77F ( 25C)  Relative Humidity:  67%
  Winds from the SW (210 degs) at  5 mph.
  Altimeter:30.01 inches of mercury.
  The prevailing visibility was 10 miles.

The weather observed at SOUTH HILL/MECKL, VA (KAVC) at 12:15 PM EDT was:
  The skies were clear.
  Temperature: 91F ( 33C)  Dewpoint:  77F ( 25C)  Relative Humidity:  63%
  Winds from the SW (210 degs) at  8 mph.
  Altimeter:30.00 inches of mercury.
  The prevailing visibility was 10 miles.

The weather observed at SOUTH HILL/MECKL, VA (KAVC) at 12:35 PM EDT was:
  The skies were clear.
  Temperature: 93F ( 34C)  Dewpoint:  77F ( 25C)  Relative Humidity:  59%
  Winds from the SW (230 degs) at  6 mph.
  Altimeter:30.00 inches of mercury.
  The prevailing visibility was 10 miles.

The weather observed at SOUTH HILL/MECKL, VA (KAVC) at 12:55 PM EDT was:
  The skies were clear.
  Temperature: 93F ( 34C)  Dewpoint:  79F ( 26C)  Relative Humidity:  63%
  Winds from the SW (220 degs) at  6 mph.
  Altimeter:29.99 inches of mercury.
  The prevailing visibility was 10 miles.

The weather observed at SOUTH HILL/MECKL, VA (KAVC) at 01:15 PM EDT was:
  The skies were clear.
  Temperature: 93F ( 34C)  Dewpoint:  79F ( 26C)  Relative Humidity:  63%
  Winds from the SW (220 degs) at 10 mph.
  Altimeter:29.99 inches of mercury.
  The prevailing visibility was 10 miles.

The weather observed at SOUTH HILL/MECKL, VA (KAVC) at 01:35 PM EDT was:
  The skies were clear.
  Temperature: 93F ( 34C)  Dewpoint:  77F ( 25C)  Relative Humidity:  59%
  Winds from the SW (230 degs) at  8 mph.
  Altimeter:29.99 inches of mercury.
  The prevailing visibility was 10 miles.

The weather observed at SOUTH HILL/MECKL, VA (KAVC) at 01:55 PM EDT was:
  The skies were clear.
  Temperature: 93F ( 34C)  Dewpoint:  78F ( 26C)  Relative Humidity:  62%
  Winds from the SW (210 degs) at  9 mph.
  Altimeter:29.98 inches of mercury.
  The prevailing visibility was 10 miles.
  The maximum temperature in the past 6 hours was  94F.

The weather observed at SOUTH HILL/MECKL, VA (KAVC) at 02:15 PM EDT was:
  The skies were clear.
  Temperature: 93F ( 34C)  Dewpoint:  77F ( 25C)  Relative Humidity:  59%
  Winds from the SW (210 degs) at  9 mph.
  Altimeter:29.98 inches of mercury.
  The prevailing visibility was 10 miles.

The weather observed at SOUTH HILL/MECKL, VA (KAVC) at 02:35 PM EDT was:
  The skies were partly cloudy.
  Temperature: 93F ( 34C)  Dewpoint:  79F ( 26C)  Relative Humidity:  63%
  Winds from the S  (170 degs) at  9 mph.
  Altimeter:29.97 inches of mercury.
  The prevailing visibility was 10 miles.

The weather observed at SOUTH HILL/MECKL, VA (KAVC) at 02:55 PM EDT was:
  The skies were partly cloudy.
  Temperature: 93F ( 34C)  Dewpoint:  79F ( 26C)  Relative Humidity:  63%
  Winds from the S  (180 degs) at  9 mph.
  Altimeter:29.96 inches of mercury.
  The prevailing visibility was 10 miles.

The weather observed at SOUTH HILL/MECKL, VA (KAVC) at 03:15 PM EDT was:
  The skies were partly cloudy.
  Temperature: 93F ( 34C)  Dewpoint:  79F ( 26C)  Relative Humidity:  63%
  Winds from the SSW(200 degs) at  9 mph.
  Altimeter:29.96 inches of mercury.
  The prevailing visibility was 10 miles.

The weather observed at SOUTH HILL/MECKL, VA (KAVC) at 03:35 PM EDT was:
  The skies were partly cloudy.
  Temperature: 93F ( 34C)  Dewpoint:  79F ( 26C)  Relative Humidity:  63%
  Winds from the S  (180 degs) at 12 mph.
  Altimeter:29.96 inches of mercury.
  The prevailing visibility was 10 miles.

The weather observed at SOUTH HILL/MECKL, VA (KAVC) at 03:55 PM EDT was:
  The skies were clear.
  Temperature: 93F ( 34C)  Dewpoint:  77F ( 25C)  Relative Humidity:  59%
  Winds from the S  (180 degs) at 12 mph.
  Altimeter:29.95 inches of mercury.
  The prevailing visibility was 10 miles.

The weather observed at SOUTH HILL/MECKL, VA (KAVC) at 04:15 PM EDT was:
  The skies were partly cloudy.
  Temperature: 93F ( 34C)  Dewpoint:  77F ( 25C)  Relative Humidity:  59%
  Winds from the S  (180 degs) at 12 mph.
  Altimeter:29.94 inches of mercury.
  The prevailing visibility was 10 miles.

Short Range Forecast

Sorry no data found for avc
Make sure avc is a valid station
You might need to specify a nearby major city
Try Again

Zone Forecast

VAZ065-170200-
Mecklenburg-
Including the city of South Hill
245 PM EDT Tue Jul 16 2024

...HEAT ADVISORY REMAINS IN EFFECT UNTIL 8 PM EDT THIS EVENING...
...HEAT ADVISORY IN EFFECT FROM 11 AM TO 8 PM EDT WEDNESDAY...

.THIS AFTERNOON...Partly sunny with a chance of showers and
thunderstorms. Highs in the upper 90s. Southwest winds 5 to
10 mph with gusts up to 20 mph. Chance of rain 30 percent. Heat
index values up to 107.
.TONIGHT...Partly cloudy. A chance of showers and thunderstorms
in the evening. Humid with lows in the upper 70s. Southwest winds
5 to 10 mph. Chance of rain 30 percent. Heat index values up to
104 early in the evening.
.WEDNESDAY...Partly sunny. Showers and thunderstorms likely in
the afternoon. Hot with highs in the mid 90s. Southwest winds
5 to 10 mph. Gusts up to 20 mph in the afternoon. Chance of rain
70 percent. Heat index values up to 106.
.WEDNESDAY NIGHT...Mostly cloudy. Showers and thunderstorms
likely, mainly in the evening. Humid with lows in the lower 70s.
Southwest winds 5 to 10 mph. Chance of rain 70 percent.
.THURSDAY...Mostly cloudy with a chance of thunderstorms. A
chance of showers in the morning, then showers likely in the
afternoon. Humid with highs in the upper 80s. West winds around
5 mph, becoming northwest in the afternoon. Chance of rain
70 percent.
.THURSDAY NIGHT...Showers likely in the evening. Mostly cloudy
with a chance of thunderstorms. Lows in the upper 60s. Chance of
rain 70 percent.
.FRIDAY...Mostly cloudy in the morning, then partly sunny with a
chance of showers and thunderstorms in the afternoon. Highs in
the lower 80s. Chance of rain 40 percent.
.FRIDAY NIGHT...A chance of thunderstorms in the evening. Mostly
cloudy with a chance of showers. Lows in the upper 60s. Chance of
rain 40 percent.
.SATURDAY...Mostly cloudy with a chance of showers. A chance of
thunderstorms in the afternoon. Highs in the mid 80s. Chance of
rain 50 percent.
.SATURDAY NIGHT...Mostly cloudy with a chance of showers and
thunderstorms. Lows around 70. Chance of rain 50 percent.
.SUNDAY...Mostly cloudy. A chance of showers and thunderstorms in
the afternoon. Highs in the upper 80s. Chance of rain 50 percent.
.SUNDAY NIGHT...Mostly cloudy with a chance of showers and
thunderstorms. Lows around 70. Chance of rain 50 percent.
.MONDAY...Mostly cloudy. Showers and thunderstorms likely in the
afternoon. Highs in the mid 80s. Chance of rain 60 percent.


State Forecast

Sorry no data found for avc
Make sure avc is a valid station
You might need to specify a nearby major city
Try Again

State Forecast Discussion

Sorry no data found for avc
Make sure avc is a valid station
You might need to specify a nearby major city
Try Again

GFS Short-Range Model Output Statistics (MOS) Forecast

KAVC   GFS MOS GUIDANCE    7/16/2024  1200 UTC
DT /JULY 16/JULY 17                /JULY 18                /JULY 19
HR   18 21 00 03 06 09 12 15 18 21 00 03 06 09 12 15 18 21 00 06 12
N/X                    75          95          73          84    67
TMP  97 97 90 82 79 77 80 89 93 90 84 77 76 75 75 78 81 81 76 70 70
DPT  72 70 72 72 72 72 75 74 72 73 73 74 74 73 73 74 74 74 74 70 69
CLD  FW SC BK BK SC BK BK SC BK BK OV OV OV OV OV OV OV OV OV OV OV
WDR  21 21 19 19 20 20 20 22 21 21 20 20 20 21 22 31 36 35 36 00 36
WSP  09 10 07 06 05 06 07 09 10 12 07 05 05 02 02 02 02 03 01 00 04
P06        10     8    10     5    50    41    25    31    49 38 20
P12                    10          51          58          65    47
Q06         0     0     0     0     2     1     0     1     2  1  0
Q12                     0           1           2           3     1
T06     28/22 21/ 9  2/ 1  6/ 3 48/29 26/ 6 14/ 1 20/ 1 42/15  7/ 0
T12           39/22        6/ 4       57/29       27/ 3    49/15
CIG   8  8  8  8  8  8  8  8  8  8  7  7  7  3  2  4  6  6  7  6  6
VIS   7  7  7  7  7  7  7  7  7  7  7  7  7  7  5  7  7  7  7  3  7
OBV   N  N  N  N  N  N  N  N  N  N  N  N  N  N BR  N  N  N  N BR  N

GFS Long-Range Model Output Statistics (MOS) Forecast

KAVC   GFSX MOS GUIDANCE   7/16/2024  1200 UTC
FHR  24  36| 48  60| 72  84| 96 108|120 132|144 156|168 180|192
     WED 17| THU 18| FRI 19| SAT 20| SUN 21| MON 22| TUE 23|WED CLIMO
N/X  75  95| 73  84| 67  86| 68  85| 68  90| 70  87| 69  88| 68 66 89
TMP  80  84| 75  76| 70  78| 73  77| 72  80| 74  79| 73  80| 73
DPT  75  73| 73  74| 69  70| 70  73| 71  72| 71  72| 71  73| 70
CLD  PC  OV| OV  OV| OV  OV| OV  OV| OV  OV| OV  OV| OV  OV| PC
WND   7  12|  7   3|  4   4|  2   4|  2   5|  3   5|  4   8|  6
P12  10  51| 58  65| 47  33| 26  48| 37  36| 38  40| 37  35| 26999999
P24      51|     78|     58|     55|     53|     59|     59|      999
Q12   0   1|  2   3|  1   0|  0   2|  1   1|  2   4|       |
Q24       1|      4|      1|      1|      1|      4|       |
T12  21  48| 31  49| 33  26| 15  40| 25  40| 27  38| 24  34| 19
T24        | 56    | 52    | 28    | 52    | 53    | 42    | 34

NGM Model Output Statistics (MOS) Forecast

Climatological Summary

Sorry no data found for avc
Make sure avc is a valid station
You might need to specify a nearby major city
Try Again

Watch and Warning Statment

Sorry no data found for avc
Make sure avc is a valid station
You might need to specify a nearby major city
or it could be THERE ARE NO WATCHES OR WARNINGS for avc
Try Again

Park/Ski Recreation Report/Forecast

Sorry no data found for avc
Make sure avc is a valid station
You might need to specify a nearby major city
Try Again